sensor_id;sensor_type;location;lat;lon;timestamp;P1;durP1;ratioP1;P2;durP2;ratioP2
51814;SDS011;37874;53.158;6.766;2023-04-23T00:18:24;3.70;;;2.13;;
51814;SDS011;37874;53.158;6.766;2023-04-23T00:20:49;3.33;;;2.05;;
51814;SDS011;37874;53.158;6.766;2023-04-23T00:23:15;3.08;;;2.30;;
51814;SDS011;37874;53.158;6.766;2023-04-23T00:25:41;3.13;;;2.28;;
51814;SDS011;37874;53.158;6.766;2023-04-23T00:28:07;4.18;;;2.53;;
51814;SDS011;37874;53.158;6.766;2023-04-23T00:30:32;2.60;;;1.88;;
51814;SDS011;37874;53.158;6.766;2023-04-23T00:32:58;3.80;;;2.55;;
51814;SDS011;37874;53.158;6.766;2023-04-23T00:35:24;3.60;;;2.28;;
51814;SDS011;37874;53.158;6.766;2023-04-23T00:37:49;3.20;;;2.10;;
51814;SDS011;37874;53.158;6.766;2023-04-23T00:40:15;3.10;;;2.47;;
51814;SDS011;37874;53.158;6.766;2023-04-23T00:42:40;2.88;;;1.92;;
51814;SDS011;37874;53.158;6.766;2023-04-23T00:45:06;3.22;;;2.15;;
51814;SDS011;37874;53.158;6.766;2023-04-23T00:47:33;2.80;;;2.15;;
51814;SDS011;37874;53.158;6.766;2023-04-23T00:49:59;2.92;;;2.03;;
51814;SDS011;37874;53.158;6.766;2023-04-23T00:52:25;4.07;;;1.98;;
51814;SDS011;37874;53.158;6.766;2023-04-23T00:54:50;3.20;;;2.30;;
51814;SDS011;37874;53.158;6.766;2023-04-23T00:57:16;3.22;;;2.40;;
51814;SDS011;37874;53.158;6.766;2023-04-23T00:59:42;3.53;;;2.40;;
51814;SDS011;37874;53.158;6.766;2023-04-23T01:02:08;3.78;;;2.20;;
51814;SDS011;37874;53.158;6.766;2023-04-23T01:04:34;3.42;;;2.33;;
51814;SDS011;37874;53.158;6.766;2023-04-23T01:07:02;3.28;;;2.38;;
51814;SDS011;37874;53.158;6.766;2023-04-23T01:09:27;3.42;;;2.33;;
51814;SDS011;37874;53.158;6.766;2023-04-23T01:11:53;3.58;;;2.50;;
51814;SDS011;37874;53.158;6.766;2023-04-23T01:14:19;3.40;;;2.17;;
51814;SDS011;37874;53.158;6.766;2023-04-23T01:16:45;3.67;;;2.30;;
51814;SDS011;37874;53.158;6.766;2023-04-23T01:19:11;3.95;;;2.60;;
51814;SDS011;37874;53.158;6.766;2023-04-23T01:21:38;2.97;;;2.13;;
51814;SDS011;37874;53.158;6.766;2023-04-23T01:24:07;2.92;;;2.15;;
51814;SDS011;37874;53.158;6.766;2023-04-23T01:26:34;3.22;;;2.17;;
51814;SDS011;37874;53.158;6.766;2023-04-23T01:29:00;3.15;;;2.25;;
51814;SDS011;37874;53.158;6.766;2023-04-23T01:31:26;3.42;;;2.50;;
51814;SDS011;37874;53.158;6.766;2023-04-23T01:33:52;3.78;;;2.20;;
51814;SDS011;37874;53.158;6.766;2023-04-23T01:36:19;3.30;;;2.60;;
51814;SDS011;37874;53.158;6.766;2023-04-23T01:38:46;3.60;;;2.53;;
51814;SDS011;37874;53.158;6.766;2023-04-23T01:41:12;3.42;;;2.45;;
51814;SDS011;37874;53.158;6.766;2023-04-23T01:43:38;3.08;;;2.30;;
51814;SDS011;37874;53.158;6.766;2023-04-23T01:46:05;3.22;;;2.05;;
51814;SDS011;37874;53.158;6.766;2023-04-23T01:48:31;2.58;;;1.98;;
51814;SDS011;37874;53.158;6.766;2023-04-23T01:50:57;3.92;;;2.70;;
51814;SDS011;37874;53.158;6.766;2023-04-23T01:53:23;3.45;;;2.25;;
51814;SDS011;37874;53.158;6.766;2023-04-23T01:55:49;2.97;;;2.22;;
51814;SDS011;37874;53.158;6.766;2023-04-23T01:58:16;3.50;;;2.60;;
51814;SDS011;37874;53.158;6.766;2023-04-23T02:00:43;3.55;;;2.47;;
51814;SDS011;37874;53.158;6.766;2023-04-23T02:03:08;3.55;;;2.53;;
51814;SDS011;37874;53.158;6.766;2023-04-23T02:05:35;3.30;;;2.30;;
51814;SDS011;37874;53.158;6.766;2023-04-23T02:08:02;3.92;;;2.60;;
51814;SDS011;37874;53.158;6.766;2023-04-23T02:10:28;3.13;;;2.33;;
51814;SDS011;37874;53.158;6.766;2023-04-23T02:12:56;3.50;;;2.30;;
51814;SDS011;37874;53.158;6.766;2023-04-23T02:15:22;3.65;;;2.40;;
51814;SDS011;37874;53.158;6.766;2023-04-23T02:17:48;2.75;;;2.05;;
51814;SDS011;37874;53.158;6.766;2023-04-23T02:20:16;3.67;;;2.55;;
51814;SDS011;37874;53.158;6.766;2023-04-23T02:22:42;3.30;;;2.50;;
51814;SDS011;37874;53.158;6.766;2023-04-23T02:25:08;3.42;;;2.40;;
51814;SDS011;37874;53.158;6.766;2023-04-23T02:27:34;3.70;;;2.75;;
51814;SDS011;37874;53.158;6.766;2023-04-23T02:30:00;3.25;;;2.45;;
51814;SDS011;37874;53.158;6.766;2023-04-23T02:32:26;3.55;;;2.60;;
51814;SDS011;37874;53.158;6.766;2023-04-23T02:34:52;4.53;;;2.63;;
51814;SDS011;37874;53.158;6.766;2023-04-23T02:37:17;3.22;;;2.42;;
51814;SDS011;37874;53.158;6.766;2023-04-23T02:39:43;3.10;;;2.47;;
51814;SDS011;37874;53.158;6.766;2023-04-23T02:42:09;3.17;;;2.38;;
51814;SDS011;37874;53.158;6.766;2023-04-23T02:44:35;3.55;;;2.25;;
51814;SDS011;37874;53.158;6.766;2023-04-23T02:47:01;3.03;;;2.22;;
51814;SDS011;37874;53.158;6.766;2023-04-23T02:49:26;4.22;;;2.30;;
51814;SDS011;37874;53.158;6.766;2023-04-23T02:51:52;5.18;;;3.03;;
51814;SDS011;37874;53.158;6.766;2023-04-23T02:54:18;3.40;;;2.42;;
51814;SDS011;37874;53.158;6.766;2023-04-23T02:56:43;4.70;;;2.50;;
51814;SDS011;37874;53.158;6.766;2023-04-23T02:59:09;3.55;;;2.50;;
51814;SDS011;37874;53.158;6.766;2023-04-23T03:01:35;3.30;;;2.25;;
51814;SDS011;37874;53.158;6.766;2023-04-23T03:04:00;3.70;;;2.50;;
51814;SDS011;37874;53.158;6.766;2023-04-23T03:06:27;3.28;;;2.60;;
51814;SDS011;37874;53.158;6.766;2023-04-23T03:08:53;3.65;;;2.50;;
51814;SDS011;37874;53.158;6.766;2023-04-23T03:11:18;3.55;;;2.63;;
51814;SDS011;37874;53.158;6.766;2023-04-23T03:13:45;3.55;;;2.42;;
51814;SDS011;37874;53.158;6.766;2023-04-23T03:16:10;3.60;;;2.55;;
51814;SDS011;37874;53.158;6.766;2023-04-23T03:18:36;3.78;;;2.60;;
51814;SDS011;37874;53.158;6.766;2023-04-23T03:21:01;4.05;;;2.50;;
51814;SDS011;37874;53.158;6.766;2023-04-23T03:23:27;4.55;;;2.53;;
51814;SDS011;37874;53.158;6.766;2023-04-23T03:25:53;3.42;;;2.30;;
51814;SDS011;37874;53.158;6.766;2023-04-23T03:28:19;4.03;;;2.58;;
51814;SDS011;37874;53.158;6.766;2023-04-23T03:30:44;4.40;;;2.60;;
51814;SDS011;37874;53.158;6.766;2023-04-23T03:33:10;3.95;;;2.80;;
51814;SDS011;37874;53.158;6.766;2023-04-23T03:35:36;3.55;;;2.55;;
51814;SDS011;37874;53.158;6.766;2023-04-23T03:38:01;4.15;;;2.83;;
51814;SDS011;37874;53.158;6.766;2023-04-23T03:40:27;3.75;;;2.58;;
51814;SDS011;37874;53.158;6.766;2023-04-23T03:42:52;3.63;;;2.58;;
51814;SDS011;37874;53.158;6.766;2023-04-23T03:45:18;4.35;;;2.78;;
51814;SDS011;37874;53.158;6.766;2023-04-23T03:47:43;3.65;;;2.42;;
51814;SDS011;37874;53.158;6.766;2023-04-23T03:50:10;3.92;;;2.65;;
51814;SDS011;37874;53.158;6.766;2023-04-23T03:52:37;3.63;;;2.70;;
51814;SDS011;37874;53.158;6.766;2023-04-23T03:55:03;3.90;;;2.85;;
51814;SDS011;37874;53.158;6.766;2023-04-23T03:57:28;3.85;;;3.03;;
51814;SDS011;37874;53.158;6.766;2023-04-23T03:59:54;3.88;;;2.85;;
51814;SDS011;37874;53.158;6.766;2023-04-23T04:02:20;4.10;;;2.90;;
51814;SDS011;37874;53.158;6.766;2023-04-23T04:04:45;4.20;;;2.85;;
51814;SDS011;37874;53.158;6.766;2023-04-23T04:07:13;4.07;;;2.85;;
51814;SDS011;37874;53.158;6.766;2023-04-23T04:09:40;4.15;;;3.10;;
51814;SDS011;37874;53.158;6.766;2023-04-23T04:12:05;4.68;;;3.42;;
51814;SDS011;37874;53.158;6.766;2023-04-23T04:14:31;4.30;;;2.95;;
51814;SDS011;37874;53.158;6.766;2023-04-23T04:16:57;4.25;;;3.08;;
51814;SDS011;37874;53.158;6.766;2023-04-23T04:19:23;4.95;;;3.10;;
51814;SDS011;37874;53.158;6.766;2023-04-23T04:21:48;3.90;;;2.65;;
51814;SDS011;37874;53.158;6.766;2023-04-23T04:24:17;4.85;;;3.08;;
51814;SDS011;37874;53.158;6.766;2023-04-23T04:26:43;4.10;;;3.10;;
51814;SDS011;37874;53.158;6.766;2023-04-23T04:29:09;4.90;;;3.25;;
51814;SDS011;37874;53.158;6.766;2023-04-23T04:31:35;5.28;;;3.67;;
51814;SDS011;37874;53.158;6.766;2023-04-23T04:34:01;5.00;;;3.42;;
51814;SDS011;37874;53.158;6.766;2023-04-23T04:36:28;4.30;;;3.20;;
51814;SDS011;37874;53.158;6.766;2023-04-23T04:38:54;5.00;;;3.65;;
51814;SDS011;37874;53.158;6.766;2023-04-23T04:41:23;4.57;;;3.65;;
51814;SDS011;37874;53.158;6.766;2023-04-23T04:43:49;5.63;;;3.80;;
51814;SDS011;37874;53.158;6.766;2023-04-23T04:46:16;6.75;;;3.70;;
51814;SDS011;37874;53.158;6.766;2023-04-23T04:48:44;5.60;;;4.13;;
51814;SDS011;37874;53.158;6.766;2023-04-23T04:51:13;6.07;;;4.15;;
51814;SDS011;37874;53.158;6.766;2023-04-23T04:53:39;5.20;;;3.95;;
51814;SDS011;37874;53.158;6.766;2023-04-23T04:56:05;6.30;;;4.40;;
51814;SDS011;37874;53.158;6.766;2023-04-23T04:58:32;5.82;;;4.60;;
51814;SDS011;37874;53.158;6.766;2023-04-23T05:00:57;5.63;;;4.30;;
51814;SDS011;37874;53.158;6.766;2023-04-23T05:03:23;7.22;;;4.65;;
51814;SDS011;37874;53.158;6.766;2023-04-23T05:05:50;6.10;;;4.47;;
51814;SDS011;37874;53.158;6.766;2023-04-23T05:08:16;7.32;;;4.95;;
51814;SDS011;37874;53.158;6.766;2023-04-23T05:10:42;6.15;;;4.75;;
51814;SDS011;37874;53.158;6.766;2023-04-23T05:13:09;6.68;;;4.85;;
51814;SDS011;37874;53.158;6.766;2023-04-23T05:15:35;5.68;;;4.80;;
51814;SDS011;37874;53.158;6.766;2023-04-23T05:18:04;6.93;;;5.43;;
51814;SDS011;37874;53.158;6.766;2023-04-23T05:20:30;5.55;;;4.43;;
51814;SDS011;37874;53.158;6.766;2023-04-23T05:22:56;6.18;;;5.05;;
51814;SDS011;37874;53.158;6.766;2023-04-23T05:25:23;6.65;;;5.35;;
51814;SDS011;37874;53.158;6.766;2023-04-23T05:27:49;6.63;;;5.05;;
51814;SDS011;37874;53.158;6.766;2023-04-23T05:30:15;5.85;;;4.20;;
51814;SDS011;37874;53.158;6.766;2023-04-23T05:32:41;6.25;;;5.00;;
51814;SDS011;37874;53.158;6.766;2023-04-23T05:35:06;6.35;;;5.05;;
51814;SDS011;37874;53.158;6.766;2023-04-23T05:37:32;7.32;;;5.53;;
51814;SDS011;37874;53.158;6.766;2023-04-23T05:39:58;6.90;;;5.35;;
51814;SDS011;37874;53.158;6.766;2023-04-23T05:42:24;8.32;;;6.47;;
51814;SDS011;37874;53.158;6.766;2023-04-23T05:44:50;6.35;;;5.13;;
51814;SDS011;37874;53.158;6.766;2023-04-23T05:47:15;8.07;;;5.68;;
51814;SDS011;37874;53.158;6.766;2023-04-23T05:49:41;7.72;;;6.05;;
51814;SDS011;37874;53.158;6.766;2023-04-23T05:52:06;6.78;;;5.47;;
51814;SDS011;37874;53.158;6.766;2023-04-23T05:54:32;6.93;;;5.63;;
51814;SDS011;37874;53.158;6.766;2023-04-23T05:56:58;7.95;;;5.75;;
51814;SDS011;37874;53.158;6.766;2023-04-23T05:59:23;7.25;;;5.38;;
51814;SDS011;37874;53.158;6.766;2023-04-23T06:01:49;7.20;;;5.47;;
51814;SDS011;37874;53.158;6.766;2023-04-23T06:04:15;7.22;;;5.93;;
51814;SDS011;37874;53.158;6.766;2023-04-23T06:06:41;8.32;;;6.22;;
51814;SDS011;37874;53.158;6.766;2023-04-23T06:09:07;8.70;;;6.63;;
51814;SDS011;37874;53.158;6.766;2023-04-23T06:11:32;8.20;;;6.55;;
51814;SDS011;37874;53.158;6.766;2023-04-23T06:14:00;6.75;;;5.10;;
51814;SDS011;37874;53.158;6.766;2023-04-23T06:16:26;8.73;;;6.45;;
51814;SDS011;37874;53.158;6.766;2023-04-23T06:18:52;8.10;;;6.35;;
51814;SDS011;37874;53.158;6.766;2023-04-23T06:21:20;7.78;;;6.18;;
51814;SDS011;37874;53.158;6.766;2023-04-23T06:23:49;7.25;;;5.47;;
51814;SDS011;37874;53.158;6.766;2023-04-23T06:26:14;8.27;;;6.10;;
51814;SDS011;37874;53.158;6.766;2023-04-23T06:28:43;6.85;;;5.28;;
51814;SDS011;37874;53.158;6.766;2023-04-23T06:31:10;8.15;;;5.93;;
51814;SDS011;37874;53.158;6.766;2023-04-23T06:33:36;7.43;;;6.07;;
51814;SDS011;37874;53.158;6.766;2023-04-23T06:36:02;8.80;;;6.32;;
51814;SDS011;37874;53.158;6.766;2023-04-23T06:38:28;7.43;;;6.05;;
51814;SDS011;37874;53.158;6.766;2023-04-23T06:40:54;7.78;;;6.57;;
51814;SDS011;37874;53.158;6.766;2023-04-23T06:43:20;7.85;;;5.63;;
51814;SDS011;37874;53.158;6.766;2023-04-23T06:45:45;7.53;;;5.88;;
51814;SDS011;37874;53.158;6.766;2023-04-23T06:48:11;7.32;;;5.82;;
51814;SDS011;37874;53.158;6.766;2023-04-23T06:50:37;6.90;;;5.50;;
51814;SDS011;37874;53.158;6.766;2023-04-23T06:53:03;6.07;;;5.05;;
51814;SDS011;37874;53.158;6.766;2023-04-23T06:55:29;7.10;;;5.20;;
51814;SDS011;37874;53.158;6.766;2023-04-23T06:57:55;7.60;;;6.25;;
51814;SDS011;37874;53.158;6.766;2023-04-23T07:00:21;7.45;;;6.22;;
51814;SDS011;37874;53.158;6.766;2023-04-23T07:02:47;7.55;;;6.20;;
51814;SDS011;37874;53.158;6.766;2023-04-23T07:05:12;7.13;;;5.65;;
51814;SDS011;37874;53.158;6.766;2023-04-23T07:07:39;7.13;;;5.70;;
51814;SDS011;37874;53.158;6.766;2023-04-23T07:10:07;6.50;;;5.55;;
51814;SDS011;37874;53.158;6.766;2023-04-23T07:12:34;7.75;;;5.72;;
51814;SDS011;37874;53.158;6.766;2023-04-23T07:15:00;6.45;;;4.88;;
51814;SDS011;37874;53.158;6.766;2023-04-23T07:17:26;7.47;;;5.57;;
51814;SDS011;37874;53.158;6.766;2023-04-23T07:19:52;6.80;;;5.38;;
51814;SDS011;37874;53.158;6.766;2023-04-23T07:22:17;5.47;;;4.70;;
51814;SDS011;37874;53.158;6.766;2023-04-23T07:24:43;6.40;;;5.40;;
51814;SDS011;37874;53.158;6.766;2023-04-23T07:27:08;6.57;;;4.95;;
51814;SDS011;37874;53.158;6.766;2023-04-23T07:29:34;6.88;;;5.53;;
51814;SDS011;37874;53.158;6.766;2023-04-23T07:32:00;6.35;;;5.20;;
51814;SDS011;37874;53.158;6.766;2023-04-23T07:34:25;6.65;;;5.30;;
51814;SDS011;37874;53.158;6.766;2023-04-23T07:36:51;6.72;;;5.35;;
51814;SDS011;37874;53.158;6.766;2023-04-23T07:39:16;8.35;;;5.40;;
51814;SDS011;37874;53.158;6.766;2023-04-23T07:41:42;7.90;;;5.50;;
51814;SDS011;37874;53.158;6.766;2023-04-23T07:44:08;6.63;;;5.32;;
51814;SDS011;37874;53.158;6.766;2023-04-23T07:46:33;5.90;;;4.68;;
51814;SDS011;37874;53.158;6.766;2023-04-23T07:48:59;6.60;;;5.03;;
51814;SDS011;37874;53.158;6.766;2023-04-23T07:51:25;6.15;;;4.63;;
51814;SDS011;37874;53.158;6.766;2023-04-23T07:53:54;6.35;;;4.72;;
51814;SDS011;37874;53.158;6.766;2023-04-23T07:56:20;6.05;;;5.03;;
51814;SDS011;37874;53.158;6.766;2023-04-23T07:58:46;6.88;;;5.40;;
51814;SDS011;37874;53.158;6.766;2023-04-23T08:01:12;6.03;;;4.93;;
51814;SDS011;37874;53.158;6.766;2023-04-23T08:03:38;5.80;;;4.65;;
51814;SDS011;37874;53.158;6.766;2023-04-23T08:06:04;6.50;;;5.43;;
51814;SDS011;37874;53.158;6.766;2023-04-23T08:08:30;6.38;;;4.93;;
51814;SDS011;37874;53.158;6.766;2023-04-23T08:10:56;5.97;;;4.68;;
51814;SDS011;37874;53.158;6.766;2023-04-23T08:13:22;6.53;;;4.80;;
51814;SDS011;37874;53.158;6.766;2023-04-23T08:15:48;5.90;;;4.43;;
51814;SDS011;37874;53.158;6.766;2023-04-23T08:18:15;6.60;;;5.20;;
51814;SDS011;37874;53.158;6.766;2023-04-23T08:20:41;6.18;;;5.00;;
51814;SDS011;37874;53.158;6.766;2023-04-23T08:23:07;5.90;;;4.95;;
51814;SDS011;37874;53.158;6.766;2023-04-23T08:25:33;6.28;;;4.90;;
51814;SDS011;37874;53.158;6.766;2023-04-23T08:27:58;6.97;;;5.30;;
51814;SDS011;37874;53.158;6.766;2023-04-23T08:30:24;6.75;;;4.72;;
51814;SDS011;37874;53.158;6.766;2023-04-23T08:32:50;5.93;;;4.53;;
51814;SDS011;37874;53.158;6.766;2023-04-23T08:35:17;7.00;;;4.22;;
51814;SDS011;37874;53.158;6.766;2023-04-23T08:37:44;8.93;;;5.10;;
51814;SDS011;37874;53.158;6.766;2023-04-23T08:40:10;4.90;;;4.03;;
51814;SDS011;37874;53.158;6.766;2023-04-23T08:45:05;5.57;;;4.10;;
51814;SDS011;37874;53.158;6.766;2023-04-23T08:47:31;6.70;;;5.15;;
51814;SDS011;37874;53.158;6.766;2023-04-23T08:49:58;5.57;;;4.22;;
51814;SDS011;37874;53.158;6.766;2023-04-23T08:52:25;5.93;;;4.95;;
51814;SDS011;37874;53.158;6.766;2023-04-23T08:54:53;5.68;;;4.65;;
51814;SDS011;37874;53.158;6.766;2023-04-23T08:57:23;5.60;;;4.30;;
51814;SDS011;37874;53.158;6.766;2023-04-23T08:59:50;6.60;;;4.80;;
51814;SDS011;37874;53.158;6.766;2023-04-23T09:02:16;6.10;;;4.15;;
51814;SDS011;37874;53.158;6.766;2023-04-23T09:04:43;5.47;;;4.50;;
51814;SDS011;37874;53.158;6.766;2023-04-23T09:07:09;6.70;;;4.22;;
51814;SDS011;37874;53.158;6.766;2023-04-23T09:09:37;5.43;;;4.05;;
51814;SDS011;37874;53.158;6.766;2023-04-23T09:12:04;5.10;;;3.97;;
51814;SDS011;37874;53.158;6.766;2023-04-23T09:14:31;4.78;;;3.78;;
51814;SDS011;37874;53.158;6.766;2023-04-23T09:16:57;5.80;;;4.65;;
51814;SDS011;37874;53.158;6.766;2023-04-23T09:19:24;4.80;;;3.60;;
51814;SDS011;37874;53.158;6.766;2023-04-23T09:21:51;5.80;;;4.28;;
51814;SDS011;37874;53.158;6.766;2023-04-23T09:24:17;5.10;;;3.70;;
51814;SDS011;37874;53.158;6.766;2023-04-23T09:26:46;4.57;;;3.72;;
51814;SDS011;37874;53.158;6.766;2023-04-23T09:29:17;5.47;;;4.00;;
51814;SDS011;37874;53.158;6.766;2023-04-23T09:31:45;4.60;;;3.70;;
51814;SDS011;37874;53.158;6.766;2023-04-23T09:34:16;4.70;;;3.20;;
51814;SDS011;37874;53.158;6.766;2023-04-23T09:36:47;4.70;;;3.60;;
51814;SDS011;37874;53.158;6.766;2023-04-23T09:39:15;5.55;;;3.78;;
51814;SDS011;37874;53.158;6.766;2023-04-23T09:41:45;5.45;;;3.85;;
51814;SDS011;37874;53.158;6.766;2023-04-23T09:44:13;4.70;;;3.53;;
51814;SDS011;37874;53.158;6.766;2023-04-23T09:49:12;4.88;;;3.50;;
51814;SDS011;37874;53.158;6.766;2023-04-23T09:51:39;4.72;;;3.20;;
51814;SDS011;37874;53.158;6.766;2023-04-23T09:54:10;5.75;;;3.40;;
51814;SDS011;37874;53.158;6.766;2023-04-23T09:56:48;5.28;;;3.38;;
51814;SDS011;37874;53.158;6.766;2023-04-23T10:01:51;4.35;;;3.20;;
51814;SDS011;37874;53.158;6.766;2023-04-23T10:04:20;5.50;;;3.08;;
51814;SDS011;37874;53.158;6.766;2023-04-23T10:06:54;4.07;;;3.08;;
51814;SDS011;37874;53.158;6.766;2023-04-23T10:09:29;4.13;;;2.60;;
51814;SDS011;37874;53.158;6.766;2023-04-23T10:11:56;5.85;;;2.95;;
51814;SDS011;37874;53.158;6.766;2023-04-23T10:14:23;4.25;;;2.83;;
51814;SDS011;37874;53.158;6.766;2023-04-23T10:16:50;4.10;;;2.70;;
51814;SDS011;37874;53.158;6.766;2023-04-23T10:19:18;4.10;;;2.60;;
51814;SDS011;37874;53.158;6.766;2023-04-23T10:21:52;4.90;;;2.95;;
51814;SDS011;37874;53.158;6.766;2023-04-23T10:24:21;5.10;;;2.72;;
51814;SDS011;37874;53.158;6.766;2023-04-23T10:26:49;4.30;;;2.67;;
51814;SDS011;37874;53.158;6.766;2023-04-23T10:29:18;4.90;;;2.90;;
51814;SDS011;37874;53.158;6.766;2023-04-23T10:31:49;4.68;;;2.70;;
51814;SDS011;37874;53.158;6.766;2023-04-23T10:34:18;3.67;;;2.47;;
51814;SDS011;37874;53.158;6.766;2023-04-23T10:36:44;4.78;;;2.60;;
51814;SDS011;37874;53.158;6.766;2023-04-23T10:39:10;3.65;;;2.25;;
51814;SDS011;37874;53.158;6.766;2023-04-23T10:41:38;3.30;;;2.13;;
51814;SDS011;37874;53.158;6.766;2023-04-23T10:44:10;3.80;;;2.10;;
51814;SDS011;37874;53.158;6.766;2023-04-23T10:46:36;4.10;;;2.38;;
51814;SDS011;37874;53.158;6.766;2023-04-23T10:51:39;3.88;;;2.38;;
51814;SDS011;37874;53.158;6.766;2023-04-23T10:54:07;3.35;;;1.73;;
51814;SDS011;37874;53.158;6.766;2023-04-23T10:56:36;4.82;;;2.28;;
51814;SDS011;37874;53.158;6.766;2023-04-23T10:59:04;3.97;;;2.10;;
51814;SDS011;37874;53.158;6.766;2023-04-23T11:01:31;3.80;;;1.80;;
51814;SDS011;37874;53.158;6.766;2023-04-23T11:03:57;3.92;;;1.73;;
51814;SDS011;37874;53.158;6.766;2023-04-23T11:12:01;3.15;;;1.90;;
51814;SDS011;37874;53.158;6.766;2023-04-23T11:14:33;4.20;;;1.95;;
51814;SDS011;37874;53.158;6.766;2023-04-23T11:17:01;3.65;;;1.88;;
51814;SDS011;37874;53.158;6.766;2023-04-23T11:19:28;4.80;;;1.60;;
51814;SDS011;37874;53.158;6.766;2023-04-23T11:21:57;4.22;;;1.60;;
51814;SDS011;37874;53.158;6.766;2023-04-23T11:24:25;2.88;;;1.52;;
51814;SDS011;37874;53.158;6.766;2023-04-23T11:26:51;4.10;;;1.83;;
51814;SDS011;37874;53.158;6.766;2023-04-23T11:29:21;5.93;;;1.77;;
51814;SDS011;37874;53.158;6.766;2023-04-23T11:31:48;4.55;;;1.80;;
51814;SDS011;37874;53.158;6.766;2023-04-23T11:34:15;3.03;;;1.52;;
51814;SDS011;37874;53.158;6.766;2023-04-23T11:36:42;2.90;;;1.42;;
51814;SDS011;37874;53.158;6.766;2023-04-23T11:39:07;3.67;;;1.73;;
51814;SDS011;37874;53.158;6.766;2023-04-23T11:41:34;2.85;;;1.50;;
51814;SDS011;37874;53.158;6.766;2023-04-23T11:44:00;2.60;;;1.52;;
51814;SDS011;37874;53.158;6.766;2023-04-23T11:46:26;3.05;;;1.42;;
51814;SDS011;37874;53.158;6.766;2023-04-23T11:48:51;3.25;;;1.45;;
51814;SDS011;37874;53.158;6.766;2023-04-23T11:51:17;3.30;;;1.40;;
51814;SDS011;37874;53.158;6.766;2023-04-23T11:53:47;2.60;;;1.40;;
51814;SDS011;37874;53.158;6.766;2023-04-23T11:56:16;3.55;;;1.60;;
51814;SDS011;37874;53.158;6.766;2023-04-23T11:58:42;2.58;;;1.45;;
51814;SDS011;37874;53.158;6.766;2023-04-23T12:01:09;3.15;;;1.33;;
51814;SDS011;37874;53.158;6.766;2023-04-23T12:03:37;1.67;;;1.00;;
51814;SDS011;37874;53.158;6.766;2023-04-23T12:06:04;3.38;;;1.52;;
51814;SDS011;37874;53.158;6.766;2023-04-23T12:08:32;3.40;;;1.33;;
51814;SDS011;37874;53.158;6.766;2023-04-23T12:11:00;3.28;;;1.00;;
51814;SDS011;37874;53.158;6.766;2023-04-23T12:13:28;3.30;;;1.38;;
51814;SDS011;37874;53.158;6.766;2023-04-23T12:15:57;2.60;;;1.27;;
51814;SDS011;37874;53.158;6.766;2023-04-23T12:18:27;2.75;;;1.23;;
51814;SDS011;37874;53.158;6.766;2023-04-23T12:20:52;3.40;;;1.10;;
51814;SDS011;37874;53.158;6.766;2023-04-23T12:23:18;2.55;;;1.10;;
51814;SDS011;37874;53.158;6.766;2023-04-23T12:25:51;2.80;;;1.20;;
51814;SDS011;37874;53.158;6.766;2023-04-23T12:28:21;2.78;;;1.20;;
51814;SDS011;37874;53.158;6.766;2023-04-23T12:30:47;2.92;;;1.20;;
51814;SDS011;37874;53.158;6.766;2023-04-23T12:33:13;2.40;;;1.10;;
51814;SDS011;37874;53.158;6.766;2023-04-23T12:35:40;2.13;;;1.00;;
51814;SDS011;37874;53.158;6.766;2023-04-23T12:40:54;3.05;;;1.20;;
51814;SDS011;37874;53.158;6.766;2023-04-23T12:43:20;3.70;;;1.10;;
51814;SDS011;37874;53.158;6.766;2023-04-23T12:45:47;3.42;;;1.15;;
51814;SDS011;37874;53.158;6.766;2023-04-23T12:48:13;3.08;;;1.10;;
51814;SDS011;37874;53.158;6.766;2023-04-23T12:50:39;3.20;;;1.02;;
51814;SDS011;37874;53.158;6.766;2023-04-23T12:53:05;3.50;;;1.20;;
51814;SDS011;37874;53.158;6.766;2023-04-23T12:55:31;3.15;;;1.20;;
51814;SDS011;37874;53.158;6.766;2023-04-23T12:57:57;2.85;;;1.00;;
51814;SDS011;37874;53.158;6.766;2023-04-23T13:00:23;3.20;;;1.13;;
51814;SDS011;37874;53.158;6.766;2023-04-23T13:02:49;3.22;;;1.05;;
51814;SDS011;37874;53.158;6.766;2023-04-23T13:05:15;3.25;;;1.20;;
51814;SDS011;37874;53.158;6.766;2023-04-23T13:07:41;2.75;;;1.38;;
51814;SDS011;37874;53.158;6.766;2023-04-23T13:10:07;2.67;;;1.10;;
51814;SDS011;37874;53.158;6.766;2023-04-23T13:12:34;2.20;;;0.98;;
51814;SDS011;37874;53.158;6.766;2023-04-23T13:14:59;2.47;;;1.00;;
51814;SDS011;37874;53.158;6.766;2023-04-23T13:17:25;3.22;;;1.08;;
51814;SDS011;37874;53.158;6.766;2023-04-23T13:19:51;3.00;;;1.05;;
51814;SDS011;37874;53.158;6.766;2023-04-23T13:22:17;2.35;;;1.00;;
51814;SDS011;37874;53.158;6.766;2023-04-23T13:24:43;2.17;;;0.95;;
51814;SDS011;37874;53.158;6.766;2023-04-23T13:27:08;3.08;;;0.85;;
51814;SDS011;37874;53.158;6.766;2023-04-23T13:29:35;2.47;;;1.00;;
51814;SDS011;37874;53.158;6.766;2023-04-23T13:32:01;2.88;;;1.13;;
51814;SDS011;37874;53.158;6.766;2023-04-23T13:34:26;2.58;;;1.20;;
51814;SDS011;37874;53.158;6.766;2023-04-23T13:36:52;2.63;;;1.10;;
51814;SDS011;37874;53.158;6.766;2023-04-23T13:39:18;1.75;;;1.05;;
51814;SDS011;37874;53.158;6.766;2023-04-23T13:41:44;1.95;;;0.95;;
51814;SDS011;37874;53.158;6.766;2023-04-23T13:44:10;2.40;;;1.00;;
51814;SDS011;37874;53.158;6.766;2023-04-23T13:46:37;2.95;;;1.10;;
51814;SDS011;37874;53.158;6.766;2023-04-23T13:49:04;1.50;;;0.80;;
51814;SDS011;37874;53.158;6.766;2023-04-23T13:51:30;1.98;;;0.88;;
51814;SDS011;37874;53.158;6.766;2023-04-23T13:53:55;2.50;;;1.00;;
51814;SDS011;37874;53.158;6.766;2023-04-23T13:56:22;1.80;;;0.88;;
51814;SDS011;37874;53.158;6.766;2023-04-23T13:58:48;2.45;;;0.90;;
51814;SDS011;37874;53.158;6.766;2023-04-23T14:01:16;2.00;;;0.98;;
51814;SDS011;37874;53.158;6.766;2023-04-23T14:03:42;4.03;;;0.82;;
51814;SDS011;37874;53.158;6.766;2023-04-23T14:06:08;2.90;;;1.10;;
51814;SDS011;37874;53.158;6.766;2023-04-23T14:08:34;3.03;;;1.00;;
51814;SDS011;37874;53.158;6.766;2023-04-23T14:11:03;1.98;;;0.80;;
51814;SDS011;37874;53.158;6.766;2023-04-23T14:13:30;3.33;;;1.13;;
51814;SDS011;37874;53.158;6.766;2023-04-23T14:15:56;2.28;;;0.75;;
51814;SDS011;37874;53.158;6.766;2023-04-23T14:18:22;1.73;;;0.70;;
51814;SDS011;37874;53.158;6.766;2023-04-23T14:20:47;2.60;;;1.00;;
51814;SDS011;37874;53.158;6.766;2023-04-23T16:32:16;2.40;;;0.70;;
51814;SDS011;37874;53.158;6.766;2023-04-23T16:34:42;1.90;;;0.70;;
51814;SDS011;37874;53.158;6.766;2023-04-23T16:37:07;2.47;;;0.80;;
51814;SDS011;37874;53.158;6.766;2023-04-23T16:39:34;1.30;;;0.50;;
51814;SDS011;37874;53.158;6.766;2023-04-23T16:42:00;2.13;;;0.52;;
51814;SDS011;37874;53.158;6.766;2023-04-23T16:44:26;1.55;;;0.50;;
51814;SDS011;37874;53.158;6.766;2023-04-23T16:46:52;2.88;;;0.50;;
51814;SDS011;37874;53.158;6.766;2023-04-23T16:49:18;1.98;;;0.57;;
51814;SDS011;37874;53.158;6.766;2023-04-23T16:51:43;1.10;;;0.40;;
51814;SDS011;37874;53.158;6.766;2023-04-23T16:54:09;1.85;;;0.73;;
51814;SDS011;37874;53.158;6.766;2023-04-23T16:56:35;2.00;;;0.60;;
51814;SDS011;37874;53.158;6.766;2023-04-23T16:59:01;1.48;;;0.50;;
51814;SDS011;37874;53.158;6.766;2023-04-23T17:01:27;1.60;;;0.60;;
51814;SDS011;37874;53.158;6.766;2023-04-23T17:03:52;3.42;;;0.90;;
51814;SDS011;37874;53.158;6.766;2023-04-23T17:06:30;1.83;;;0.70;;
51814;SDS011;37874;53.158;6.766;2023-04-23T17:08:57;2.00;;;0.70;;
51814;SDS011;37874;53.158;6.766;2023-04-23T17:11:25;1.10;;;0.47;;
51814;SDS011;37874;53.158;6.766;2023-04-23T17:13:51;2.72;;;0.52;;
51814;SDS011;37874;53.158;6.766;2023-04-23T17:16:17;1.05;;;0.40;;
51814;SDS011;37874;53.158;6.766;2023-04-23T17:18:42;1.83;;;0.50;;
51814;SDS011;37874;53.158;6.766;2023-04-23T17:21:08;2.10;;;0.60;;
51814;SDS011;37874;53.158;6.766;2023-04-23T17:23:34;1.50;;;0.60;;
51814;SDS011;37874;53.158;6.766;2023-04-23T17:26:00;1.95;;;0.60;;
51814;SDS011;37874;53.158;6.766;2023-04-23T17:28:25;1.90;;;0.60;;